Astoria, South Dakota
Current Conditions -  °F | °C
As of 2:34 PM on Friday 28 Nov 2014 (Local Time) from KCNB Reporting Station
Scattered Clouds Scattered Clouds  
Wind Chill: 11°   Ceiling: Unl
Heat Index: 20°   Visibility: 10mi
Dew Point: 17°   Wind: 8mph
Humidity: 85%   Direction: 90°E
Pressure: 29.75"   Gusts: NA
Location:  44.56°N, 96.55°W
Report Text: KCNB 282034Z AUTO 09007KT 10SM SCT120 M06/M09 A2975 RMK AO2 T10641086
Loading
Personal Weather Stations






























Interactive Weather Map New forecast layout! Learn more

10-Day Weather Forecast

Advertisements
Track Severe Weather on mobile